sensor_id;sensor_type;location;lat;lon;timestamp;P1;durP1;ratioP1;P2;durP2;ratioP2
2061;SDS011;11070;51.336;12.340;2023-12-22T00:01:18;19.53;;;4.43;;
2061;SDS011;11070;51.336;12.340;2023-12-22T00:03:43;18.60;;;5.40;;
2061;SDS011;11070;51.336;12.340;2023-12-22T00:06:11;19.15;;;4.75;;
2061;SDS011;11070;51.336;12.340;2023-12-22T00:08:37;12.10;;;4.38;;
2061;SDS011;11070;51.336;12.340;2023-12-22T00:11:03;16.83;;;5.50;;
2061;SDS011;11070;51.336;12.340;2023-12-22T00:13:29;19.02;;;4.35;;
2061;SDS011;11070;51.336;12.340;2023-12-22T00:15:55;17.67;;;5.37;;
2061;SDS011;11070;51.336;12.340;2023-12-22T00:18:20;14.80;;;3.87;;
2061;SDS011;11070;51.336;12.340;2023-12-22T00:20:46;14.20;;;4.03;;
2061;SDS011;11070;51.336;12.340;2023-12-22T00:23:12;18.53;;;4.60;;
2061;SDS011;11070;51.336;12.340;2023-12-22T00:25:37;11.37;;;3.50;;
2061;SDS011;11070;51.336;12.340;2023-12-22T00:28:03;16.07;;;3.80;;
2061;SDS011;11070;51.336;12.340;2023-12-22T00:30:29;12.37;;;4.97;;
2061;SDS011;11070;51.336;12.340;2023-12-22T00:32:54;12.10;;;3.90;;
2061;SDS011;11070;51.336;12.340;2023-12-22T00:35:20;15.43;;;3.70;;
2061;SDS011;11070;51.336;12.340;2023-12-22T00:37:46;12.73;;;3.40;;
2061;SDS011;11070;51.336;12.340;2023-12-22T00:40:12;13.23;;;4.25;;
2061;SDS011;11070;51.336;12.340;2023-12-22T00:42:38;8.10;;;3.40;;
2061;SDS011;11070;51.336;12.340;2023-12-22T00:45:03;14.00;;;3.47;;
2061;SDS011;11070;51.336;12.340;2023-12-22T00:47:29;21.20;;;4.68;;
2061;SDS011;11070;51.336;12.340;2023-12-22T00:49:55;8.43;;;3.10;;
2061;SDS011;11070;51.336;12.340;2023-12-22T00:52:21;11.33;;;3.63;;
2061;SDS011;11070;51.336;12.340;2023-12-22T00:54:46;16.60;;;4.07;;
2061;SDS011;11070;51.336;12.340;2023-12-22T00:57:12;16.53;;;4.27;;
2061;SDS011;11070;51.336;12.340;2023-12-22T00:59:38;22.20;;;6.27;;
2061;SDS011;11070;51.336;12.340;2023-12-22T01:02:10;13.95;;;3.83;;
2061;SDS011;11070;51.336;12.340;2023-12-22T01:04:35;14.97;;;3.80;;
2061;SDS011;11070;51.336;12.340;2023-12-22T01:07:01;15.83;;;4.30;;
2061;SDS011;11070;51.336;12.340;2023-12-22T01:09:27;18.30;;;4.60;;
2061;SDS011;11070;51.336;12.340;2023-12-22T01:11:52;15.17;;;4.97;;
2061;SDS011;11070;51.336;12.340;2023-12-22T01:14:18;15.17;;;3.90;;
2061;SDS011;11070;51.336;12.340;2023-12-22T01:16:44;15.23;;;5.00;;
2061;SDS011;11070;51.336;12.340;2023-12-22T01:19:09;16.03;;;4.50;;
2061;SDS011;11070;51.336;12.340;2023-12-22T01:21:35;12.60;;;3.90;;
2061;SDS011;11070;51.336;12.340;2023-12-22T01:24:01;12.40;;;3.60;;
2061;SDS011;11070;51.336;12.340;2023-12-22T01:26:27;17.37;;;4.10;;
2061;SDS011;11070;51.336;12.340;2023-12-22T01:28:52;18.50;;;5.10;;
2061;SDS011;11070;51.336;12.340;2023-12-22T01:31:18;18.00;;;4.77;;
2061;SDS011;11070;51.336;12.340;2023-12-22T01:33:44;19.65;;;4.90;;
2061;SDS011;11070;51.336;12.340;2023-12-22T01:36:10;25.70;;;5.20;;
2061;SDS011;11070;51.336;12.340;2023-12-22T01:38:35;15.57;;;4.23;;
2061;SDS011;11070;51.336;12.340;2023-12-22T01:41:01;14.37;;;4.20;;
2061;SDS011;11070;51.336;12.340;2023-12-22T01:43:27;15.53;;;5.17;;
2061;SDS011;11070;51.336;12.340;2023-12-22T01:45:56;22.40;;;4.97;;
2061;SDS011;11070;51.336;12.340;2023-12-22T01:48:24;15.77;;;4.40;;
2061;SDS011;11070;51.336;12.340;2023-12-22T01:50:51;24.27;;;4.78;;
2061;SDS011;11070;51.336;12.340;2023-12-22T01:53:21;23.63;;;5.00;;
2061;SDS011;11070;51.336;12.340;2023-12-22T01:55:48;16.25;;;4.38;;
2061;SDS011;11070;51.336;12.340;2023-12-22T01:58:15;21.17;;;4.35;;
2061;SDS011;11070;51.336;12.340;2023-12-22T02:00:42;13.60;;;4.10;;
2061;SDS011;11070;51.336;12.340;2023-12-22T02:03:08;21.97;;;4.77;;
2061;SDS011;11070;51.336;12.340;2023-12-22T02:05:34;20.20;;;4.13;;
2061;SDS011;11070;51.336;12.340;2023-12-22T02:08:00;18.53;;;4.50;;
2061;SDS011;11070;51.336;12.340;2023-12-22T02:10:26;13.37;;;3.80;;
2061;SDS011;11070;51.336;12.340;2023-12-22T02:12:51;14.97;;;4.30;;
2061;SDS011;11070;51.336;12.340;2023-12-22T02:15:18;15.50;;;3.78;;
2061;SDS011;11070;51.336;12.340;2023-12-22T02:20:24;15.70;;;4.43;;
2061;SDS011;11070;51.336;12.340;2023-12-22T02:22:51;14.15;;;5.38;;
2061;SDS011;11070;51.336;12.340;2023-12-22T02:25:18;15.25;;;4.50;;
2061;SDS011;11070;51.336;12.340;2023-12-22T02:27:50;11.27;;;3.83;;
2061;SDS011;11070;51.336;12.340;2023-12-22T02:33:08;19.63;;;4.55;;
2061;SDS011;11070;51.336;12.340;2023-12-22T02:35:37;21.20;;;4.55;;
2061;SDS011;11070;51.336;12.340;2023-12-22T02:38:06;17.52;;;3.60;;
2061;SDS011;11070;51.336;12.340;2023-12-22T02:40:33;12.40;;;3.88;;
2061;SDS011;11070;51.336;12.340;2023-12-22T02:43:01;17.75;;;4.10;;
2061;SDS011;11070;51.336;12.340;2023-12-22T02:45:27;13.38;;;4.10;;
2061;SDS011;11070;51.336;12.340;2023-12-22T02:47:55;19.52;;;4.13;;
2061;SDS011;11070;51.336;12.340;2023-12-22T02:50:20;14.13;;;3.93;;
2061;SDS011;11070;51.336;12.340;2023-12-22T02:52:46;12.27;;;3.90;;
2061;SDS011;11070;51.336;12.340;2023-12-22T02:55:12;20.07;;;4.27;;
2061;SDS011;11070;51.336;12.340;2023-12-22T02:57:37;19.23;;;3.33;;
2061;SDS011;11070;51.336;12.340;2023-12-22T03:00:03;14.87;;;3.57;;
2061;SDS011;11070;51.336;12.340;2023-12-22T03:02:29;15.30;;;4.10;;
2061;SDS011;11070;51.336;12.340;2023-12-22T03:04:55;14.73;;;4.00;;
2061;SDS011;11070;51.336;12.340;2023-12-22T03:07:21;10.17;;;3.60;;
2061;SDS011;11070;51.336;12.340;2023-12-22T03:09:46;15.73;;;3.90;;
2061;SDS011;11070;51.336;12.340;2023-12-22T03:12:12;16.17;;;3.37;;
2061;SDS011;11070;51.336;12.340;2023-12-22T03:14:38;9.23;;;3.43;;
2061;SDS011;11070;51.336;12.340;2023-12-22T03:17:04;10.60;;;2.73;;
2061;SDS011;11070;51.336;12.340;2023-12-22T03:19:31;14.50;;;3.38;;
2061;SDS011;11070;51.336;12.340;2023-12-22T03:21:57;10.48;;;3.65;;
2061;SDS011;11070;51.336;12.340;2023-12-22T03:24:23;11.20;;;3.20;;
2061;SDS011;11070;51.336;12.340;2023-12-22T03:26:50;7.07;;;3.40;;
2061;SDS011;11070;51.336;12.340;2023-12-22T03:29:16;9.27;;;3.20;;
2061;SDS011;11070;51.336;12.340;2023-12-22T03:31:42;11.75;;;3.08;;
2061;SDS011;11070;51.336;12.340;2023-12-22T03:34:08;12.70;;;3.15;;
2061;SDS011;11070;51.336;12.340;2023-12-22T03:36:34;10.57;;;2.40;;
2061;SDS011;11070;51.336;12.340;2023-12-22T03:39:00;8.57;;;2.70;;
2061;SDS011;11070;51.336;12.340;2023-12-22T03:41:25;7.57;;;2.30;;
2061;SDS011;11070;51.336;12.340;2023-12-22T03:43:52;4.53;;;2.05;;
2061;SDS011;11070;51.336;12.340;2023-12-22T03:46:17;9.57;;;2.43;;
2061;SDS011;11070;51.336;12.340;2023-12-22T03:48:43;5.25;;;2.38;;
2061;SDS011;11070;51.336;12.340;2023-12-22T03:51:09;10.60;;;3.00;;
2061;SDS011;11070;51.336;12.340;2023-12-22T03:53:36;10.25;;;2.58;;
2061;SDS011;11070;51.336;12.340;2023-12-22T03:56:04;9.13;;;2.30;;
2061;SDS011;11070;51.336;12.340;2023-12-22T03:58:29;11.50;;;2.63;;
2061;SDS011;11070;51.336;12.340;2023-12-22T04:00:55;9.70;;;2.80;;
2061;SDS011;11070;51.336;12.340;2023-12-22T04:03:21;9.88;;;2.40;;
2061;SDS011;11070;51.336;12.340;2023-12-22T04:05:47;7.90;;;2.10;;
2061;SDS011;11070;51.336;12.340;2023-12-22T04:08:13;3.33;;;1.57;;
2061;SDS011;11070;51.336;12.340;2023-12-22T04:10:38;4.97;;;1.27;;
2061;SDS011;11070;51.336;12.340;2023-12-22T04:13:04;3.47;;;1.30;;
2061;SDS011;11070;51.336;12.340;2023-12-22T04:15:29;3.30;;;1.43;;
2061;SDS011;11070;51.336;12.340;2023-12-22T04:17:55;1.77;;;1.50;;
2061;SDS011;11070;51.336;12.340;2023-12-22T04:20:21;3.20;;;1.13;;
2061;SDS011;11070;51.336;12.340;2023-12-22T04:22:46;1.63;;;1.03;;
2061;SDS011;11070;51.336;12.340;2023-12-22T04:25:12;3.80;;;1.50;;
2061;SDS011;11070;51.336;12.340;2023-12-22T04:27:38;3.50;;;1.37;;
2061;SDS011;11070;51.336;12.340;2023-12-22T04:30:03;5.70;;;1.07;;
2061;SDS011;11070;51.336;12.340;2023-12-22T04:32:29;3.55;;;1.35;;
2061;SDS011;11070;51.336;12.340;2023-12-22T04:34:55;3.93;;;1.43;;
2061;SDS011;11070;51.336;12.340;2023-12-22T04:37:21;3.20;;;1.40;;
2061;SDS011;11070;51.336;12.340;2023-12-22T04:39:46;5.03;;;1.50;;
2061;SDS011;11070;51.336;12.340;2023-12-22T04:42:12;4.03;;;1.63;;
2061;SDS011;11070;51.336;12.340;2023-12-22T04:44:38;5.70;;;1.70;;
2061;SDS011;11070;51.336;12.340;2023-12-22T04:47:03;5.77;;;1.70;;
2061;SDS011;11070;51.336;12.340;2023-12-22T04:49:29;5.83;;;1.80;;
2061;SDS011;11070;51.336;12.340;2023-12-22T04:51:54;4.30;;;1.57;;
2061;SDS011;11070;51.336;12.340;2023-12-22T04:54:20;4.90;;;1.60;;
2061;SDS011;11070;51.336;12.340;2023-12-22T04:56:46;7.67;;;1.80;;
2061;SDS011;11070;51.336;12.340;2023-12-22T04:59:11;6.13;;;1.80;;
2061;SDS011;11070;51.336;12.340;2023-12-22T05:01:37;5.93;;;2.67;;
2061;SDS011;11070;51.336;12.340;2023-12-22T05:04:03;12.93;;;2.60;;
2061;SDS011;11070;51.336;12.340;2023-12-22T05:06:29;4.07;;;1.80;;
2061;SDS011;11070;51.336;12.340;2023-12-22T05:08:54;9.47;;;2.70;;
2061;SDS011;11070;51.336;12.340;2023-12-22T05:11:21;6.70;;;2.03;;
2061;SDS011;11070;51.336;12.340;2023-12-22T05:13:47;6.37;;;2.20;;
2061;SDS011;11070;51.336;12.340;2023-12-22T05:16:13;7.40;;;2.30;;
2061;SDS011;11070;51.336;12.340;2023-12-22T05:18:39;8.33;;;2.40;;
2061;SDS011;11070;51.336;12.340;2023-12-22T05:21:05;11.07;;;2.53;;
2061;SDS011;11070;51.336;12.340;2023-12-22T05:23:30;9.20;;;2.37;;
2061;SDS011;11070;51.336;12.340;2023-12-22T05:25:56;9.47;;;2.57;;
2061;SDS011;11070;51.336;12.340;2023-12-22T05:28:21;5.60;;;1.83;;
2061;SDS011;11070;51.336;12.340;2023-12-22T05:30:47;7.50;;;1.90;;
2061;SDS011;11070;51.336;12.340;2023-12-22T05:33:13;9.07;;;2.37;;
2061;SDS011;11070;51.336;12.340;2023-12-22T05:35:39;7.50;;;1.90;;
2061;SDS011;11070;51.336;12.340;2023-12-22T05:38:04;5.93;;;2.47;;
2061;SDS011;11070;51.336;12.340;2023-12-22T05:40:31;6.37;;;2.27;;
2061;SDS011;11070;51.336;12.340;2023-12-22T05:42:56;9.30;;;2.50;;
2061;SDS011;11070;51.336;12.340;2023-12-22T05:45:22;6.70;;;1.93;;
2061;SDS011;11070;51.336;12.340;2023-12-22T05:47:49;5.57;;;2.00;;
2061;SDS011;11070;51.336;12.340;2023-12-22T05:50:15;9.48;;;2.30;;
2061;SDS011;11070;51.336;12.340;2023-12-22T05:52:42;10.98;;;2.35;;
2061;SDS011;11070;51.336;12.340;2023-12-22T05:55:11;6.15;;;2.13;;
2061;SDS011;11070;51.336;12.340;2023-12-22T05:57:37;6.57;;;1.93;;
2061;SDS011;11070;51.336;12.340;2023-12-22T06:00:03;6.60;;;2.20;;
2061;SDS011;11070;51.336;12.340;2023-12-22T06:02:32;12.80;;;2.33;;
2061;SDS011;11070;51.336;12.340;2023-12-22T06:04:58;9.80;;;2.50;;
2061;SDS011;11070;51.336;12.340;2023-12-22T06:07:24;9.37;;;2.20;;
2061;SDS011;11070;51.336;12.340;2023-12-22T06:09:50;9.13;;;2.10;;
2061;SDS011;11070;51.336;12.340;2023-12-22T06:12:15;10.87;;;2.10;;
2061;SDS011;11070;51.336;12.340;2023-12-22T06:14:41;9.63;;;2.40;;
2061;SDS011;11070;51.336;12.340;2023-12-22T06:17:07;9.50;;;1.70;;
2061;SDS011;11070;51.336;12.340;2023-12-22T06:19:32;6.87;;;2.00;;
2061;SDS011;11070;51.336;12.340;2023-12-22T06:22:00;9.10;;;2.30;;
2061;SDS011;11070;51.336;12.340;2023-12-22T06:24:25;10.30;;;2.10;;
2061;SDS011;11070;51.336;12.340;2023-12-22T06:26:51;4.70;;;2.20;;
2061;SDS011;11070;51.336;12.340;2023-12-22T06:29:17;7.13;;;2.20;;
2061;SDS011;11070;51.336;12.340;2023-12-22T06:31:42;6.10;;;2.07;;
2061;SDS011;11070;51.336;12.340;2023-12-22T06:34:08;8.63;;;2.47;;
2061;SDS011;11070;51.336;12.340;2023-12-22T06:36:34;4.90;;;2.20;;
2061;SDS011;11070;51.336;12.340;2023-12-22T06:39:00;6.10;;;1.70;;
2061;SDS011;11070;51.336;12.340;2023-12-22T06:41:26;7.00;;;2.80;;
2061;SDS011;11070;51.336;12.340;2023-12-22T06:43:54;7.43;;;2.08;;
2061;SDS011;11070;51.336;12.340;2023-12-22T06:46:21;7.22;;;2.40;;
2061;SDS011;11070;51.336;12.340;2023-12-22T06:48:48;5.00;;;2.45;;
2061;SDS011;11070;51.336;12.340;2023-12-22T06:53:46;9.65;;;2.40;;
2061;SDS011;11070;51.336;12.340;2023-12-22T06:56:19;14.77;;;3.00;;
2061;SDS011;11070;51.336;12.340;2023-12-22T06:58:47;10.40;;;2.47;;
2061;SDS011;11070;51.336;12.340;2023-12-22T07:03:46;7.75;;;2.40;;
2061;SDS011;11070;51.336;12.340;2023-12-22T07:06:13;8.05;;;3.00;;
2061;SDS011;11070;51.336;12.340;2023-12-22T07:08:40;9.05;;;2.35;;
2061;SDS011;11070;51.336;12.340;2023-12-22T07:11:06;14.27;;;3.05;;
2061;SDS011;11070;51.336;12.340;2023-12-22T07:13:32;10.75;;;3.25;;
2061;SDS011;11070;51.336;12.340;2023-12-22T07:15:58;8.10;;;2.47;;
2061;SDS011;11070;51.336;12.340;2023-12-22T07:18:23;11.17;;;3.00;;
2061;SDS011;11070;51.336;12.340;2023-12-22T07:20:50;11.93;;;2.92;;
2061;SDS011;11070;51.336;12.340;2023-12-22T07:23:16;8.82;;;2.15;;
2061;SDS011;11070;51.336;12.340;2023-12-22T07:25:45;5.93;;;2.23;;
2061;SDS011;11070;51.336;12.340;2023-12-22T07:28:10;4.03;;;2.22;;
2061;SDS011;11070;51.336;12.340;2023-12-22T07:30:36;5.97;;;1.43;;
2061;SDS011;11070;51.336;12.340;2023-12-22T07:33:02;4.90;;;1.50;;
2061;SDS011;11070;51.336;12.340;2023-12-22T07:35:28;7.03;;;1.90;;
2061;SDS011;11070;51.336;12.340;2023-12-22T07:37:54;3.17;;;1.60;;
2061;SDS011;11070;51.336;12.340;2023-12-22T07:40:19;8.33;;;1.90;;
2061;SDS011;11070;51.336;12.340;2023-12-22T07:42:45;7.70;;;2.50;;
2061;SDS011;11070;51.336;12.340;2023-12-22T07:45:11;5.33;;;1.93;;
2061;SDS011;11070;51.336;12.340;2023-12-22T07:47:36;11.57;;;2.40;;
2061;SDS011;11070;51.336;12.340;2023-12-22T07:50:02;3.83;;;2.30;;
2061;SDS011;11070;51.336;12.340;2023-12-22T07:52:29;6.25;;;1.92;;
2061;SDS011;11070;51.336;12.340;2023-12-22T07:54:54;4.67;;;2.00;;
2061;SDS011;11070;51.336;12.340;2023-12-22T07:57:20;4.50;;;1.53;;
2061;SDS011;11070;51.336;12.340;2023-12-22T07:59:46;4.53;;;1.90;;
2061;SDS011;11070;51.336;12.340;2023-12-22T08:02:11;9.47;;;1.80;;
2061;SDS011;11070;51.336;12.340;2023-12-22T08:04:37;6.53;;;2.30;;
2061;SDS011;11070;51.336;12.340;2023-12-22T08:07:03;6.30;;;1.80;;
2061;SDS011;11070;51.336;12.340;2023-12-22T08:09:28;6.70;;;2.17;;
2061;SDS011;11070;51.336;12.340;2023-12-22T08:11:54;7.43;;;2.10;;
2061;SDS011;11070;51.336;12.340;2023-12-22T08:14:21;10.15;;;3.72;;
2061;SDS011;11070;51.336;12.340;2023-12-22T08:16:47;3.70;;;2.00;;
2061;SDS011;11070;51.336;12.340;2023-12-22T08:19:13;8.80;;;2.10;;
2061;SDS011;11070;51.336;12.340;2023-12-22T08:21:39;5.13;;;2.17;;
2061;SDS011;11070;51.336;12.340;2023-12-22T08:24:04;4.43;;;1.73;;
2061;SDS011;11070;51.336;12.340;2023-12-22T08:26:30;4.43;;;2.30;;
2061;SDS011;11070;51.336;12.340;2023-12-22T08:28:56;3.10;;;1.77;;
2061;SDS011;11070;51.336;12.340;2023-12-22T08:31:21;3.60;;;1.63;;
2061;SDS011;11070;51.336;12.340;2023-12-22T08:33:47;4.10;;;2.13;;
2061;SDS011;11070;51.336;12.340;2023-12-22T08:36:13;5.93;;;2.07;;
2061;SDS011;11070;51.336;12.340;2023-12-22T08:38:39;6.82;;;1.98;;
2061;SDS011;11070;51.336;12.340;2023-12-22T08:41:06;4.15;;;1.80;;
2061;SDS011;11070;51.336;12.340;2023-12-22T08:43:33;2.20;;;1.52;;
2061;SDS011;11070;51.336;12.340;2023-12-22T08:45:59;6.00;;;2.50;;
2061;SDS011;11070;51.336;12.340;2023-12-22T08:48:25;6.93;;;3.00;;
2061;SDS011;11070;51.336;12.340;2023-12-22T08:50:50;5.43;;;2.10;;
2061;SDS011;11070;51.336;12.340;2023-12-22T08:53:16;10.07;;;2.77;;
2061;SDS011;11070;51.336;12.340;2023-12-22T08:55:42;5.80;;;1.87;;
2061;SDS011;11070;51.336;12.340;2023-12-22T08:58:07;3.67;;;1.90;;
2061;SDS011;11070;51.336;12.340;2023-12-22T09:00:33;3.43;;;1.80;;
2061;SDS011;11070;51.336;12.340;2023-12-22T09:02:58;3.60;;;2.47;;
2061;SDS011;11070;51.336;12.340;2023-12-22T09:05:24;6.47;;;1.47;;
2061;SDS011;11070;51.336;12.340;2023-12-22T09:07:50;2.20;;;1.60;;
2061;SDS011;11070;51.336;12.340;2023-12-22T09:10:16;2.30;;;1.13;;
2061;SDS011;11070;51.336;12.340;2023-12-22T09:12:41;5.47;;;1.30;;
2061;SDS011;11070;51.336;12.340;2023-12-22T09:15:07;4.07;;;1.97;;
2061;SDS011;11070;51.336;12.340;2023-12-22T09:17:33;5.53;;;2.27;;
2061;SDS011;11070;51.336;12.340;2023-12-22T09:19:59;6.50;;;1.90;;
2061;SDS011;11070;51.336;12.340;2023-12-22T09:22:25;1.77;;;1.23;;
2061;SDS011;11070;51.336;12.340;2023-12-22T09:24:51;6.17;;;1.40;;
2061;SDS011;11070;51.336;12.340;2023-12-22T09:27:16;3.43;;;1.83;;
2061;SDS011;11070;51.336;12.340;2023-12-22T09:29:42;5.30;;;1.67;;
2061;SDS011;11070;51.336;12.340;2023-12-22T09:32:07;2.97;;;1.23;;
2061;SDS011;11070;51.336;12.340;2023-12-22T09:34:33;2.13;;;1.67;;
2061;SDS011;11070;51.336;12.340;2023-12-22T09:36:59;4.73;;;1.50;;
2061;SDS011;11070;51.336;12.340;2023-12-22T09:39:24;2.73;;;1.60;;
2061;SDS011;11070;51.336;12.340;2023-12-22T09:41:52;1.92;;;1.35;;
2061;SDS011;11070;51.336;12.340;2023-12-22T09:44:18;3.13;;;1.60;;
2061;SDS011;11070;51.336;12.340;2023-12-22T09:46:46;2.90;;;1.48;;
2061;SDS011;11070;51.336;12.340;2023-12-22T09:49:16;2.95;;;1.65;;
2061;SDS011;11070;51.336;12.340;2023-12-22T09:51:46;2.67;;;1.40;;
2061;SDS011;11070;51.336;12.340;2023-12-22T09:54:13;2.88;;;1.90;;
2061;SDS011;11070;51.336;12.340;2023-12-22T09:56:40;2.92;;;1.80;;
2061;SDS011;11070;51.336;12.340;2023-12-22T09:59:13;2.33;;;2.10;;
2061;SDS011;11070;51.336;12.340;2023-12-22T10:01:43;1.77;;;1.63;;
2061;SDS011;11070;51.336;12.340;2023-12-22T10:04:13;1.55;;;1.38;;
2061;SDS011;11070;51.336;12.340;2023-12-22T10:06:39;1.52;;;1.27;;
2061;SDS011;11070;51.336;12.340;2023-12-22T10:09:06;1.52;;;1.10;;
2061;SDS011;11070;51.336;12.340;2023-12-22T10:11:33;2.38;;;1.83;;
2061;SDS011;11070;51.336;12.340;2023-12-22T10:14:01;1.63;;;1.52;;
2061;SDS011;11070;51.336;12.340;2023-12-22T10:16:28;1.75;;;1.15;;
2061;SDS011;11070;51.336;12.340;2023-12-22T10:18:55;2.90;;;1.60;;
2061;SDS011;11070;51.336;12.340;2023-12-22T10:21:20;2.50;;;1.30;;
2061;SDS011;11070;51.336;12.340;2023-12-22T10:23:49;2.30;;;1.30;;
2061;SDS011;11070;51.336;12.340;2023-12-22T10:26:15;3.35;;;1.70;;
2061;SDS011;11070;51.336;12.340;2023-12-22T10:28:42;1.50;;;1.40;;
2061;SDS011;11070;51.336;12.340;2023-12-22T10:31:08;1.67;;;1.55;;
2061;SDS011;11070;51.336;12.340;2023-12-22T10:33:34;2.03;;;1.35;;
2061;SDS011;11070;51.336;12.340;2023-12-22T10:36:00;2.17;;;1.80;;
2061;SDS011;11070;51.336;12.340;2023-12-22T10:38:27;1.57;;;1.20;;
2061;SDS011;11070;51.336;12.340;2023-12-22T10:40:58;3.22;;;1.55;;
2061;SDS011;11070;51.336;12.340;2023-12-22T10:43:23;3.60;;;1.50;;
2061;SDS011;11070;51.336;12.340;2023-12-22T10:45:51;3.30;;;2.30;;
2061;SDS011;11070;51.336;12.340;2023-12-22T10:48:17;4.65;;;1.77;;
2061;SDS011;11070;51.336;12.340;2023-12-22T10:50:43;3.83;;;1.92;;
2061;SDS011;11070;51.336;12.340;2023-12-22T10:53:13;3.65;;;2.00;;
2061;SDS011;11070;51.336;12.340;2023-12-22T10:55:39;5.40;;;2.40;;
2061;SDS011;11070;51.336;12.340;2023-12-22T10:58:05;6.37;;;2.20;;
2061;SDS011;11070;51.336;12.340;2023-12-22T11:00:35;6.63;;;2.05;;
2061;SDS011;11070;51.336;12.340;2023-12-22T11:03:06;6.75;;;3.20;;
2061;SDS011;11070;51.336;12.340;2023-12-22T11:05:35;6.32;;;2.10;;
2061;SDS011;11070;51.336;12.340;2023-12-22T11:08:02;4.82;;;2.72;;
2061;SDS011;11070;51.336;12.340;2023-12-22T11:10:30;6.60;;;2.50;;
2061;SDS011;11070;51.336;12.340;2023-12-22T11:12:57;7.32;;;2.40;;
2061;SDS011;11070;51.336;12.340;2023-12-22T11:15:23;3.97;;;2.38;;
2061;SDS011;11070;51.336;12.340;2023-12-22T11:17:52;8.00;;;3.17;;
2061;SDS011;11070;51.336;12.340;2023-12-22T11:20:20;4.55;;;2.30;;
2061;SDS011;11070;51.336;12.340;2023-12-22T11:22:49;6.40;;;2.60;;
2061;SDS011;11070;51.336;12.340;2023-12-22T11:25:16;4.50;;;2.95;;
2061;SDS011;11070;51.336;12.340;2023-12-22T11:27:43;5.68;;;2.17;;
2061;SDS011;11070;51.336;12.340;2023-12-22T11:30:11;8.50;;;2.90;;
2061;SDS011;11070;51.336;12.340;2023-12-22T11:32:39;6.45;;;2.35;;
2061;SDS011;11070;51.336;12.340;2023-12-22T11:35:05;9.95;;;2.35;;
2061;SDS011;11070;51.336;12.340;2023-12-22T11:37:32;5.35;;;2.85;;
2061;SDS011;11070;51.336;12.340;2023-12-22T11:40:00;5.25;;;2.22;;
2061;SDS011;11070;51.336;12.340;2023-12-22T11:42:28;5.53;;;2.23;;
2061;SDS011;11070;51.336;12.340;2023-12-22T11:44:56;7.32;;;2.53;;
2061;SDS011;11070;51.336;12.340;2023-12-22T11:47:23;8.68;;;2.55;;
2061;SDS011;11070;51.336;12.340;2023-12-22T11:49:55;7.88;;;2.30;;
2061;SDS011;11070;51.336;12.340;2023-12-22T11:52:27;6.67;;;2.50;;
2061;SDS011;11070;51.336;12.340;2023-12-22T11:54:57;8.07;;;2.50;;
2061;SDS011;11070;51.336;12.340;2023-12-22T11:57:33;10.52;;;2.83;;
2061;SDS011;11070;51.336;12.340;2023-12-22T12:00:06;8.60;;;2.58;;
2061;SDS011;11070;51.336;12.340;2023-12-22T12:02:34;4.95;;;1.95;;
2061;SDS011;11070;51.336;12.340;2023-12-22T12:05:01;6.22;;;2.28;;
2061;SDS011;11070;51.336;12.340;2023-12-22T12:07:44;8.13;;;1.92;;
2061;SDS011;11070;51.336;12.340;2023-12-22T12:13:15;8.65;;;2.40;;
2061;SDS011;11070;51.336;12.340;2023-12-22T12:15:46;8.25;;;2.42;;
2061;SDS011;11070;51.336;12.340;2023-12-22T12:18:12;5.80;;;2.30;;
2061;SDS011;11070;51.336;12.340;2023-12-22T12:20:39;8.68;;;2.97;;
2061;SDS011;11070;51.336;12.340;2023-12-22T12:23:05;13.17;;;3.87;;
2061;SDS011;11070;51.336;12.340;2023-12-22T12:25:32;11.32;;;2.72;;
2061;SDS011;11070;51.336;12.340;2023-12-22T12:28:05;7.25;;;2.60;;
2061;SDS011;11070;51.336;12.340;2023-12-22T12:30:31;9.55;;;3.65;;
2061;SDS011;11070;51.336;12.340;2023-12-22T12:33:08;8.45;;;2.45;;
2061;SDS011;11070;51.336;12.340;2023-12-22T12:35:35;7.45;;;2.72;;
2061;SDS011;11070;51.336;12.340;2023-12-22T12:38:02;15.27;;;3.42;;
2061;SDS011;11070;51.336;12.340;2023-12-22T12:40:28;6.05;;;2.58;;
2061;SDS011;11070;51.336;12.340;2023-12-22T12:42:56;7.07;;;2.70;;
2061;SDS011;11070;51.336;12.340;2023-12-22T12:45:22;8.73;;;3.40;;
2061;SDS011;11070;51.336;12.340;2023-12-22T12:47:55;9.10;;;3.30;;
2061;SDS011;11070;51.336;12.340;2023-12-22T12:50:25;4.70;;;2.70;;
2061;SDS011;11070;51.336;12.340;2023-12-22T12:52:52;3.60;;;2.03;;
2061;SDS011;11070;51.336;12.340;2023-12-22T12:55:21;5.45;;;2.90;;
2061;SDS011;11070;51.336;12.340;2023-12-22T12:57:48;3.78;;;3.10;;
2061;SDS011;11070;51.336;12.340;2023-12-22T13:00:16;5.03;;;2.80;;
2061;SDS011;11070;51.336;12.340;2023-12-22T13:03:10;4.30;;;2.55;;
2061;SDS011;11070;51.336;12.340;2023-12-22T13:05:35;5.55;;;2.80;;
2061;SDS011;11070;51.336;12.340;2023-12-22T13:10:34;3.55;;;1.90;;
2061;SDS011;11070;51.336;12.340;2023-12-22T13:12:59;7.43;;;2.30;;
2061;SDS011;11070;51.336;12.340;2023-12-22T13:15:25;7.17;;;2.83;;
2061;SDS011;11070;51.336;12.340;2023-12-22T13:17:51;2.43;;;1.90;;
2061;SDS011;11070;51.336;12.340;2023-12-22T13:20:17;2.42;;;1.92;;
2061;SDS011;11070;51.336;12.340;2023-12-22T13:22:43;4.60;;;2.57;;
2061;SDS011;11070;51.336;12.340;2023-12-22T13:25:09;3.05;;;2.50;;
2061;SDS011;11070;51.336;12.340;2023-12-22T13:27:46;3.42;;;2.45;;
2061;SDS011;11070;51.336;12.340;2023-12-22T13:30:13;3.70;;;2.30;;
2061;SDS011;11070;51.336;12.340;2023-12-22T13:32:59;4.15;;;2.17;;
2061;SDS011;11070;51.336;12.340;2023-12-22T13:35:25;6.17;;;3.50;;
2061;SDS011;11070;51.336;12.340;2023-12-22T13:37:53;5.65;;;3.00;;
2061;SDS011;11070;51.336;12.340;2023-12-22T13:40:19;7.47;;;3.55;;
2061;SDS011;11070;51.336;12.340;2023-12-22T13:42:45;8.02;;;4.40;;
2061;SDS011;11070;51.336;12.340;2023-12-22T13:45:22;5.82;;;2.90;;
2061;SDS011;11070;51.336;12.340;2023-12-22T13:47:48;5.40;;;2.42;;
2061;SDS011;11070;51.336;12.340;2023-12-22T13:50:17;6.67;;;2.50;;
2061;SDS011;11070;51.336;12.340;2023-12-22T13:52:44;8.20;;;3.05;;
2061;SDS011;11070;51.336;12.340;2023-12-22T13:55:13;6.15;;;3.35;;
2061;SDS011;11070;51.336;12.340;2023-12-22T13:57:40;8.50;;;3.25;;
2061;SDS011;11070;51.336;12.340;2023-12-22T14:02:47;11.50;;;4.28;;
2061;SDS011;11070;51.336;12.340;2023-12-22T14:05:17;12.00;;;5.40;;
2061;SDS011;11070;51.336;12.340;2023-12-22T14:07:43;14.87;;;4.90;;
2061;SDS011;11070;51.336;12.340;2023-12-22T14:10:10;11.65;;;5.00;;
2061;SDS011;11070;51.336;12.340;2023-12-22T14:12:39;16.42;;;8.02;;
2061;SDS011;11070;51.336;12.340;2023-12-22T14:15:14;9.70;;;4.05;;
2061;SDS011;11070;51.336;12.340;2023-12-22T14:17:40;13.25;;;4.93;;
2061;SDS011;11070;51.336;12.340;2023-12-22T14:20:08;8.65;;;3.05;;
2061;SDS011;11070;51.336;12.340;2023-12-22T14:22:37;6.97;;;4.00;;
2061;SDS011;11070;51.336;12.340;2023-12-22T14:25:03;8.73;;;4.17;;
2061;SDS011;11070;51.336;12.340;2023-12-22T14:27:29;12.68;;;4.30;;
2061;SDS011;11070;51.336;12.340;2023-12-22T14:29:55;7.93;;;3.63;;
2061;SDS011;11070;51.336;12.340;2023-12-22T14:32:21;9.60;;;4.07;;
2061;SDS011;11070;51.336;12.340;2023-12-22T14:34:47;7.82;;;3.85;;
2061;SDS011;11070;51.336;12.340;2023-12-22T14:37:13;14.02;;;4.68;;
2061;SDS011;11070;51.336;12.340;2023-12-22T14:39:41;10.93;;;4.38;;
2061;SDS011;11070;51.336;12.340;2023-12-22T14:42:07;11.13;;;4.93;;
2061;SDS011;11070;51.336;12.340;2023-12-22T14:44:32;12.97;;;5.40;;
2061;SDS011;11070;51.336;12.340;2023-12-22T14:46:58;11.93;;;4.63;;
2061;SDS011;11070;51.336;12.340;2023-12-22T14:49:24;12.63;;;4.30;;
2061;SDS011;11070;51.336;12.340;2023-12-22T14:51:49;6.73;;;3.80;;
2061;SDS011;11070;51.336;12.340;2023-12-22T14:54:18;9.10;;;4.80;;
2061;SDS011;11070;51.336;12.340;2023-12-22T14:56:44;10.57;;;4.10;;
2061;SDS011;11070;51.336;12.340;2023-12-22T14:59:10;18.80;;;5.80;;